sensor_id;sensor_type;location;lat;lon;timestamp;temperature;humidity
5164;DHT22;2601;50.224;10.126;2023-07-13T00:01:48;24.00;92.00
5164;DHT22;2601;50.224;10.126;2023-07-13T00:04:16;24.00;92.00
5164;DHT22;2601;50.224;10.126;2023-07-13T00:06:43;24.00;92.00
5164;DHT22;2601;50.224;10.126;2023-07-13T00:09:11;24.00;92.00
5164;DHT22;2601;50.224;10.126;2023-07-13T00:11:38;24.00;92.00
5164;DHT22;2601;50.224;10.126;2023-07-13T00:14:03;24.00;92.00
5164;DHT22;2601;50.224;10.126;2023-07-13T00:16:29;24.00;92.00
5164;DHT22;2601;50.224;10.126;2023-07-13T00:18:55;24.00;92.10
5164;DHT22;2601;50.224;10.126;2023-07-13T00:21:20;24.00;92.10
5164;DHT22;2601;50.224;10.126;2023-07-13T00:23:46;24.00;92.10
5164;DHT22;2601;50.224;10.126;2023-07-13T00:26:12;24.00;92.10
5164;DHT22;2601;50.224;10.126;2023-07-13T00:28:38;24.00;92.10
5164;DHT22;2601;50.224;10.126;2023-07-13T00:31:05;24.00;92.00
5164;DHT22;2601;50.224;10.126;2023-07-13T00:33:31;24.00;92.10
5164;DHT22;2601;50.224;10.126;2023-07-13T00:35:57;24.00;92.00
5164;DHT22;2601;50.224;10.126;2023-07-13T00:38:23;24.00;92.00
5164;DHT22;2601;50.224;10.126;2023-07-13T00:40:49;24.00;92.00
5164;DHT22;2601;50.224;10.126;2023-07-13T00:43:21;24.00;92.00
5164;DHT22;2601;50.224;10.126;2023-07-13T00:48:16;24.00;92.00
5164;DHT22;2601;50.224;10.126;2023-07-13T00:50:44;23.90;92.00
5164;DHT22;2601;50.224;10.126;2023-07-13T00:53:10;24.00;92.00
5164;DHT22;2601;50.224;10.126;2023-07-13T00:55:38;24.00;92.00
5164;DHT22;2601;50.224;10.126;2023-07-13T00:58:04;24.00;92.00
5164;DHT22;2601;50.224;10.126;2023-07-13T01:00:33;23.90;91.90
5164;DHT22;2601;50.224;10.126;2023-07-13T01:03:00;23.90;91.80
5164;DHT22;2601;50.224;10.126;2023-07-13T01:05:31;23.90;91.90
5164;DHT22;2601;50.224;10.126;2023-07-13T01:07:58;23.90;91.80
5164;DHT22;2601;50.224;10.126;2023-07-13T01:10:25;23.90;91.90
5164;DHT22;2601;50.224;10.126;2023-07-13T01:12:51;23.90;91.80
5164;DHT22;2601;50.224;10.126;2023-07-13T01:15:53;23.90;91.90
5164;DHT22;2601;50.224;10.126;2023-07-13T01:18:27;23.90;91.80
5164;DHT22;2601;50.224;10.126;2023-07-13T01:20:56;23.90;91.90
5164;DHT22;2601;50.224;10.126;2023-07-13T01:23:22;23.90;91.90
5164;DHT22;2601;50.224;10.126;2023-07-13T01:25:49;23.90;91.90
5164;DHT22;2601;50.224;10.126;2023-07-13T01:28:15;23.90;91.80
5164;DHT22;2601;50.224;10.126;2023-07-13T01:30:42;23.90;91.80
5164;DHT22;2601;50.224;10.126;2023-07-13T01:33:12;23.90;91.80
5164;DHT22;2601;50.224;10.126;2023-07-13T01:35:37;23.90;91.70
5164;DHT22;2601;50.224;10.126;2023-07-13T01:38:04;23.90;91.70
5164;DHT22;2601;50.224;10.126;2023-07-13T01:40:30;23.90;91.60
5164;DHT22;2601;50.224;10.126;2023-07-13T01:42:57;23.90;91.60
5164;DHT22;2601;50.224;10.126;2023-07-13T01:45:23;23.90;91.70
5164;DHT22;2601;50.224;10.126;2023-07-13T01:47:48;23.90;91.70
5164;DHT22;2601;50.224;10.126;2023-07-13T01:50:14;23.90;91.60
5164;DHT22;2601;50.224;10.126;2023-07-13T01:52:40;23.90;91.60
5164;DHT22;2601;50.224;10.126;2023-07-13T01:55:06;23.90;91.60
5164;DHT22;2601;50.224;10.126;2023-07-13T01:57:32;23.90;91.60
5164;DHT22;2601;50.224;10.126;2023-07-13T01:59:57;23.90;91.60
5164;DHT22;2601;50.224;10.126;2023-07-13T02:02:23;23.90;91.50
5164;DHT22;2601;50.224;10.126;2023-07-13T02:04:48;23.90;91.50
5164;DHT22;2601;50.224;10.126;2023-07-13T02:07:14;23.90;91.40
5164;DHT22;2601;50.224;10.126;2023-07-13T02:09:40;23.90;91.40
5164;DHT22;2601;50.224;10.126;2023-07-13T02:12:07;23.90;91.40
5164;DHT22;2601;50.224;10.126;2023-07-13T02:14:33;23.90;91.40
5164;DHT22;2601;50.224;10.126;2023-07-13T02:16:59;23.90;91.40
5164;DHT22;2601;50.224;10.126;2023-07-13T02:19:24;23.90;91.40
5164;DHT22;2601;50.224;10.126;2023-07-13T02:21:50;23.90;91.40
5164;DHT22;2601;50.224;10.126;2023-07-13T02:24:16;23.90;91.30
5164;DHT22;2601;50.224;10.126;2023-07-13T02:26:46;23.90;91.30
5164;DHT22;2601;50.224;10.126;2023-07-13T02:29:11;23.90;91.30
5164;DHT22;2601;50.224;10.126;2023-07-13T02:31:37;23.90;91.30
5164;DHT22;2601;50.224;10.126;2023-07-13T02:34:03;23.90;91.20
5164;DHT22;2601;50.224;10.126;2023-07-13T02:36:29;23.90;91.20
5164;DHT22;2601;50.224;10.126;2023-07-13T02:38:55;23.90;91.10
5164;DHT22;2601;50.224;10.126;2023-07-13T02:41:21;23.90;91.10
5164;DHT22;2601;50.224;10.126;2023-07-13T02:43:48;23.90;91.20
5164;DHT22;2601;50.224;10.126;2023-07-13T02:46:13;23.80;91.20
5164;DHT22;2601;50.224;10.126;2023-07-13T02:48:40;23.80;91.20
5164;DHT22;2601;50.224;10.126;2023-07-13T02:51:06;23.80;91.10
5164;DHT22;2601;50.224;10.126;2023-07-13T02:53:33;23.80;91.10
5164;DHT22;2601;50.224;10.126;2023-07-13T02:55:58;23.80;91.00
5164;DHT22;2601;50.224;10.126;2023-07-13T02:58:24;23.80;90.90
5164;DHT22;2601;50.224;10.126;2023-07-13T03:00:51;23.80;90.90
5164;DHT22;2601;50.224;10.126;2023-07-13T03:03:17;23.80;90.90
5164;DHT22;2601;50.224;10.126;2023-07-13T03:05:44;23.80;90.90
5164;DHT22;2601;50.224;10.126;2023-07-13T03:08:11;23.80;90.70
5164;DHT22;2601;50.224;10.126;2023-07-13T03:10:37;23.80;90.80
5164;DHT22;2601;50.224;10.126;2023-07-13T03:13:04;23.80;90.80
5164;DHT22;2601;50.224;10.126;2023-07-13T03:15:30;23.80;90.80
5164;DHT22;2601;50.224;10.126;2023-07-13T03:17:56;23.80;90.70
5164;DHT22;2601;50.224;10.126;2023-07-13T03:20:21;23.80;90.70
5164;DHT22;2601;50.224;10.126;2023-07-13T03:22:47;23.80;90.70
5164;DHT22;2601;50.224;10.126;2023-07-13T03:25:12;23.80;90.70
5164;DHT22;2601;50.224;10.126;2023-07-13T03:27:38;23.80;90.70
5164;DHT22;2601;50.224;10.126;2023-07-13T03:30:05;23.80;90.50
5164;DHT22;2601;50.224;10.126;2023-07-13T03:32:30;23.80;90.70
5164;DHT22;2601;50.224;10.126;2023-07-13T03:34:56;23.80;90.60
5164;DHT22;2601;50.224;10.126;2023-07-13T03:37:22;23.80;90.50
5164;DHT22;2601;50.224;10.126;2023-07-13T03:39:47;23.80;90.60
5164;DHT22;2601;50.224;10.126;2023-07-13T03:42:13;23.80;90.60
5164;DHT22;2601;50.224;10.126;2023-07-13T03:44:40;23.80;90.70
5164;DHT22;2601;50.224;10.126;2023-07-13T03:47:05;23.80;90.70
5164;DHT22;2601;50.224;10.126;2023-07-13T03:49:31;23.80;90.60
5164;DHT22;2601;50.224;10.126;2023-07-13T03:51:57;23.80;90.50
5164;DHT22;2601;50.224;10.126;2023-07-13T03:54:22;23.80;90.50
5164;DHT22;2601;50.224;10.126;2023-07-13T03:56:48;23.80;90.60
5164;DHT22;2601;50.224;10.126;2023-07-13T03:59:14;23.80;91.00
5164;DHT22;2601;50.224;10.126;2023-07-13T04:01:39;23.80;90.50
5164;DHT22;2601;50.224;10.126;2023-07-13T04:04:05;23.80;90.50
5164;DHT22;2601;50.224;10.126;2023-07-13T04:06:31;23.80;90.80
5164;DHT22;2601;50.224;10.126;2023-07-13T04:08:59;23.80;90.60
5164;DHT22;2601;50.224;10.126;2023-07-13T04:11:27;23.80;90.60
5164;DHT22;2601;50.224;10.126;2023-07-13T04:13:54;23.80;90.70
5164;DHT22;2601;50.224;10.126;2023-07-13T04:16:20;23.80;90.70
5164;DHT22;2601;50.224;10.126;2023-07-13T04:18:47;23.80;90.70
5164;DHT22;2601;50.224;10.126;2023-07-13T04:21:13;23.80;90.70
5164;DHT22;2601;50.224;10.126;2023-07-13T04:23:39;23.80;90.60
5164;DHT22;2601;50.224;10.126;2023-07-13T04:26:05;23.80;90.70
5164;DHT22;2601;50.224;10.126;2023-07-13T04:28:31;23.80;90.70
5164;DHT22;2601;50.224;10.126;2023-07-13T04:30:57;23.80;90.60
5164;DHT22;2601;50.224;10.126;2023-07-13T04:33:23;23.80;90.50
5164;DHT22;2601;50.224;10.126;2023-07-13T04:35:50;23.80;90.50
5164;DHT22;2601;50.224;10.126;2023-07-13T04:38:20;23.80;90.60
5164;DHT22;2601;50.224;10.126;2023-07-13T04:40:46;23.80;90.70
5164;DHT22;2601;50.224;10.126;2023-07-13T04:43:12;23.80;90.70
5164;DHT22;2601;50.224;10.126;2023-07-13T04:45:38;23.80;90.70
5164;DHT22;2601;50.224;10.126;2023-07-13T04:48:03;23.80;90.80
5164;DHT22;2601;50.224;10.126;2023-07-13T04:50:29;23.80;90.70
5164;DHT22;2601;50.224;10.126;2023-07-13T04:52:55;23.80;90.70
5164;DHT22;2601;50.224;10.126;2023-07-13T04:55:21;23.80;90.60
5164;DHT22;2601;50.224;10.126;2023-07-13T04:57:47;23.80;90.60
5164;DHT22;2601;50.224;10.126;2023-07-13T05:00:13;23.80;90.60
5164;DHT22;2601;50.224;10.126;2023-07-13T05:02:43;23.80;90.60
5164;DHT22;2601;50.224;10.126;2023-07-13T05:05:09;23.80;90.50
5164;DHT22;2601;50.224;10.126;2023-07-13T05:07:35;23.80;90.60
5164;DHT22;2601;50.224;10.126;2023-07-13T05:10:00;23.80;90.70
5164;DHT22;2601;50.224;10.126;2023-07-13T05:12:26;23.80;90.80
5164;DHT22;2601;50.224;10.126;2023-07-13T05:14:52;23.80;90.80
5164;DHT22;2601;50.224;10.126;2023-07-13T05:17:18;23.80;90.80
5164;DHT22;2601;50.224;10.126;2023-07-13T05:19:43;23.80;90.80
5164;DHT22;2601;50.224;10.126;2023-07-13T05:22:09;23.80;90.80
5164;DHT22;2601;50.224;10.126;2023-07-13T05:24:35;23.80;90.70
5164;DHT22;2601;50.224;10.126;2023-07-13T05:27:01;23.80;90.80
5164;DHT22;2601;50.224;10.126;2023-07-13T05:29:26;23.80;90.80
5164;DHT22;2601;50.224;10.126;2023-07-13T05:31:52;23.80;90.70
5164;DHT22;2601;50.224;10.126;2023-07-13T05:34:19;23.80;90.70
5164;DHT22;2601;50.224;10.126;2023-07-13T05:36:44;23.80;90.70
5164;DHT22;2601;50.224;10.126;2023-07-13T05:39:10;23.80;90.80
5164;DHT22;2601;50.224;10.126;2023-07-13T05:41:37;23.80;90.80
5164;DHT22;2601;50.224;10.126;2023-07-13T05:44:03;23.80;90.90
5164;DHT22;2601;50.224;10.126;2023-07-13T05:46:28;23.80;90.80
5164;DHT22;2601;50.224;10.126;2023-07-13T05:48:54;23.80;90.70
5164;DHT22;2601;50.224;10.126;2023-07-13T05:51:20;23.80;90.80
5164;DHT22;2601;50.224;10.126;2023-07-13T05:53:45;23.80;90.90
5164;DHT22;2601;50.224;10.126;2023-07-13T05:56:11;23.80;90.80
5164;DHT22;2601;50.224;10.126;2023-07-13T05:58:37;23.80;90.80
5164;DHT22;2601;50.224;10.126;2023-07-13T06:01:10;23.80;90.70
5164;DHT22;2601;50.224;10.126;2023-07-13T06:03:36;23.80;90.70
5164;DHT22;2601;50.224;10.126;2023-07-13T06:06:04;23.80;90.70
5164;DHT22;2601;50.224;10.126;2023-07-13T06:08:30;23.80;90.60
5164;DHT22;2601;50.224;10.126;2023-07-13T06:11:10;23.70;90.10
5164;DHT22;2601;50.224;10.126;2023-07-13T06:13:36;23.70;90.60
5164;DHT22;2601;50.224;10.126;2023-07-13T06:16:03;23.80;90.60
5164;DHT22;2601;50.224;10.126;2023-07-13T06:18:36;23.70;90.50
5164;DHT22;2601;50.224;10.126;2023-07-13T06:21:13;23.80;90.50
5164;DHT22;2601;50.224;10.126;2023-07-13T06:23:39;23.80;90.20
5164;DHT22;2601;50.224;10.126;2023-07-13T06:26:05;23.70;90.20
5164;DHT22;2601;50.224;10.126;2023-07-13T06:28:31;23.70;90.10
5164;DHT22;2601;50.224;10.126;2023-07-13T06:30:58;23.70;90.00
5164;DHT22;2601;50.224;10.126;2023-07-13T06:33:24;23.80;90.30
5164;DHT22;2601;50.224;10.126;2023-07-13T06:35:50;23.70;90.00
5164;DHT22;2601;50.224;10.126;2023-07-13T06:38:16;23.70;89.10
5164;DHT22;2601;50.224;10.126;2023-07-13T06:40:41;23.80;89.60
5164;DHT22;2601;50.224;10.126;2023-07-13T06:43:07;23.70;88.00
5164;DHT22;2601;50.224;10.126;2023-07-13T06:45:39;23.80;90.00
5164;DHT22;2601;50.224;10.126;2023-07-13T06:48:05;23.70;89.90
5164;DHT22;2601;50.224;10.126;2023-07-13T06:50:31;23.70;89.60
5164;DHT22;2601;50.224;10.126;2023-07-13T06:52:56;23.70;90.00
5164;DHT22;2601;50.224;10.126;2023-07-13T06:55:22;23.70;89.40
5164;DHT22;2601;50.224;10.126;2023-07-13T06:57:47;23.70;90.00
5164;DHT22;2601;50.224;10.126;2023-07-13T07:00:13;23.70;89.40
5164;DHT22;2601;50.224;10.126;2023-07-13T07:02:39;23.70;89.30
5164;DHT22;2601;50.224;10.126;2023-07-13T07:05:05;23.70;89.30
5164;DHT22;2601;50.224;10.126;2023-07-13T07:07:30;23.70;88.20
5164;DHT22;2601;50.224;10.126;2023-07-13T07:09:56;23.70;88.40
5164;DHT22;2601;50.224;10.126;2023-07-13T07:12:21;23.70;88.30
5164;DHT22;2601;50.224;10.126;2023-07-13T07:14:47;23.70;87.70
5164;DHT22;2601;50.224;10.126;2023-07-13T07:17:13;23.70;87.40
5164;DHT22;2601;50.224;10.126;2023-07-13T07:19:38;23.70;87.20
5164;DHT22;2601;50.224;10.126;2023-07-13T07:22:04;23.70;86.30
5164;DHT22;2601;50.224;10.126;2023-07-13T07:24:29;23.70;87.70
5164;DHT22;2601;50.224;10.126;2023-07-13T07:26:55;23.70;87.50
5164;DHT22;2601;50.224;10.126;2023-07-13T07:29:21;23.70;88.30
5164;DHT22;2601;50.224;10.126;2023-07-13T07:31:47;23.70;88.20
5164;DHT22;2601;50.224;10.126;2023-07-13T07:34:13;23.70;87.50
5164;DHT22;2601;50.224;10.126;2023-07-13T07:36:38;23.70;88.10
5164;DHT22;2601;50.224;10.126;2023-07-13T07:39:04;23.70;87.60
5164;DHT22;2601;50.224;10.126;2023-07-13T07:41:30;23.70;87.50
5164;DHT22;2601;50.224;10.126;2023-07-13T07:43:55;23.70;88.00
5164;DHT22;2601;50.224;10.126;2023-07-13T07:46:23;23.70;89.10
5164;DHT22;2601;50.224;10.126;2023-07-13T07:48:48;23.70;88.80
5164;DHT22;2601;50.224;10.126;2023-07-13T07:51:14;23.70;89.90
5164;DHT22;2601;50.224;10.126;2023-07-13T07:53:39;23.70;89.90
5164;DHT22;2601;50.224;10.126;2023-07-13T07:56:06;23.70;90.20
5164;DHT22;2601;50.224;10.126;2023-07-13T07:58:32;23.70;90.00
5164;DHT22;2601;50.224;10.126;2023-07-13T08:01:07;23.70;90.20
5164;DHT22;2601;50.224;10.126;2023-07-13T08:03:32;23.70;90.10
5164;DHT22;2601;50.224;10.126;2023-07-13T08:05:58;23.70;90.30
5164;DHT22;2601;50.224;10.126;2023-07-13T08:08:24;23.70;90.40
5164;DHT22;2601;50.224;10.126;2023-07-13T08:10:50;23.70;90.30
5164;DHT22;2601;50.224;10.126;2023-07-13T08:13:15;23.70;90.20
5164;DHT22;2601;50.224;10.126;2023-07-13T08:15:41;23.70;90.10
5164;DHT22;2601;50.224;10.126;2023-07-13T08:18:07;23.70;90.20
5164;DHT22;2601;50.224;10.126;2023-07-13T08:20:37;23.70;90.00
5164;DHT22;2601;50.224;10.126;2023-07-13T08:23:03;23.70;90.10
5164;DHT22;2601;50.224;10.126;2023-07-13T08:25:29;23.70;90.00
5164;DHT22;2601;50.224;10.126;2023-07-13T08:27:55;23.70;89.20
5164;DHT22;2601;50.224;10.126;2023-07-13T08:30:20;23.70;89.50
5164;DHT22;2601;50.224;10.126;2023-07-13T08:32:46;23.70;87.20
5164;DHT22;2601;50.224;10.126;2023-07-13T08:35:11;23.70;87.50
5164;DHT22;2601;50.224;10.126;2023-07-13T08:37:38;23.70;89.70
5164;DHT22;2601;50.224;10.126;2023-07-13T08:40:05;23.70;89.90
5164;DHT22;2601;50.224;10.126;2023-07-13T08:42:38;23.70;90.00
5164;DHT22;2601;50.224;10.126;2023-07-13T08:45:30;23.70;89.70
5164;DHT22;2601;50.224;10.126;2023-07-13T08:51:09;23.70;90.00
5164;DHT22;2601;50.224;10.126;2023-07-13T08:54:03;23.70;90.00
5164;DHT22;2601;50.224;10.126;2023-07-13T08:56:31;23.70;89.80
5164;DHT22;2601;50.224;10.126;2023-07-13T08:59:01;23.70;89.70
5164;DHT22;2601;50.224;10.126;2023-07-13T09:01:40;23.70;89.90
5164;DHT22;2601;50.224;10.126;2023-07-13T09:04:14;23.70;89.00
5164;DHT22;2601;50.224;10.126;2023-07-13T09:07:01;23.70;89.10
5164;DHT22;2601;50.224;10.126;2023-07-13T09:14:47;23.70;89.40
5164;DHT22;2601;50.224;10.126;2023-07-13T09:17:20;23.70;88.30
5164;DHT22;2601;50.224;10.126;2023-07-13T09:19:53;23.70;88.70
5164;DHT22;2601;50.224;10.126;2023-07-13T09:22:21;23.70;88.60
5164;DHT22;2601;50.224;10.126;2023-07-13T09:27:47;23.70;88.20
5164;DHT22;2601;50.224;10.126;2023-07-13T09:32:43;23.70;87.80
5164;DHT22;2601;50.224;10.126;2023-07-13T09:35:12;23.70;87.70
5164;DHT22;2601;50.224;10.126;2023-07-13T09:37:38;23.70;88.40
5164;DHT22;2601;50.224;10.126;2023-07-13T09:42:58;23.70;87.60
5164;DHT22;2601;50.224;10.126;2023-07-13T09:45:28;23.70;87.60
5164;DHT22;2601;50.224;10.126;2023-07-13T09:48:06;23.70;87.00
5164;DHT22;2601;50.224;10.126;2023-07-13T09:50:32;23.70;86.80
5164;DHT22;2601;50.224;10.126;2023-07-13T09:52:57;23.70;87.10
5164;DHT22;2601;50.224;10.126;2023-07-13T09:55:34;23.70;87.30
5164;DHT22;2601;50.224;10.126;2023-07-13T10:00:31;23.70;87.40
5164;DHT22;2601;50.224;10.126;2023-07-13T10:05:44;23.70;87.30
5164;DHT22;2601;50.224;10.126;2023-07-13T10:10:53;23.70;87.30
5164;DHT22;2601;50.224;10.126;2023-07-13T10:13:28;23.60;87.10
5164;DHT22;2601;50.224;10.126;2023-07-13T10:15:55;23.70;87.00
5164;DHT22;2601;50.224;10.126;2023-07-13T10:18:24;23.60;87.00
5164;DHT22;2601;50.224;10.126;2023-07-13T10:20:58;23.60;87.00
5164;DHT22;2601;50.224;10.126;2023-07-13T10:23:29;23.60;86.90
5164;DHT22;2601;50.224;10.126;2023-07-13T10:25:57;23.60;87.00
5164;DHT22;2601;50.224;10.126;2023-07-13T10:28:31;23.70;86.90
5164;DHT22;2601;50.224;10.126;2023-07-13T10:30:59;23.60;86.90
5164;DHT22;2601;50.224;10.126;2023-07-13T10:33:26;23.70;86.90
5164;DHT22;2601;50.224;10.126;2023-07-13T10:35:56;23.60;86.80
5164;DHT22;2601;50.224;10.126;2023-07-13T10:38:47;23.70;86.70
5164;DHT22;2601;50.224;10.126;2023-07-13T10:41:19;23.60;86.70
5164;DHT22;2601;50.224;10.126;2023-07-13T10:43:49;23.60;86.80
5164;DHT22;2601;50.224;10.126;2023-07-13T10:46:19;23.60;86.80
5164;DHT22;2601;50.224;10.126;2023-07-13T10:48:49;23.60;86.80
5164;DHT22;2601;50.224;10.126;2023-07-13T10:51:18;23.60;86.70
5164;DHT22;2601;50.224;10.126;2023-07-13T10:53:45;23.60;86.70
5164;DHT22;2601;50.224;10.126;2023-07-13T10:58:42;23.60;86.60
5164;DHT22;2601;50.224;10.126;2023-07-13T11:04:01;23.60;86.60
5164;DHT22;2601;50.224;10.126;2023-07-13T11:08:51;23.60;86.60
5164;DHT22;2601;50.224;10.126;2023-07-13T11:18:49;23.60;86.40
5164;DHT22;2601;50.224;10.126;2023-07-13T11:21:17;23.60;86.40
5164;DHT22;2601;50.224;10.126;2023-07-13T11:23:45;23.60;86.40
5164;DHT22;2601;50.224;10.126;2023-07-13T11:29:32;23.60;86.30
5164;DHT22;2601;50.224;10.126;2023-07-13T11:32:03;23.60;86.30
5164;DHT22;2601;50.224;10.126;2023-07-13T11:34:46;23.60;86.30
5164;DHT22;2601;50.224;10.126;2023-07-13T11:37:14;23.60;86.30
5164;DHT22;2601;50.224;10.126;2023-07-13T11:39:43;23.60;86.20
5164;DHT22;2601;50.224;10.126;2023-07-13T11:42:13;23.60;86.20
5164;DHT22;2601;50.224;10.126;2023-07-13T11:44:44;23.60;86.10
5164;DHT22;2601;50.224;10.126;2023-07-13T11:47:14;23.60;86.00
5164;DHT22;2601;50.224;10.126;2023-07-13T11:49:49;23.60;86.10
5164;DHT22;2601;50.224;10.126;2023-07-13T11:52:22;23.60;86.10
5164;DHT22;2601;50.224;10.126;2023-07-13T11:54:54;23.60;86.10
5164;DHT22;2601;50.224;10.126;2023-07-13T11:57:31;23.60;86.10
5164;DHT22;2601;50.224;10.126;2023-07-13T12:00:21;23.60;86.10
5164;DHT22;2601;50.224;10.126;2023-07-13T12:02:47;23.60;86.00
5164;DHT22;2601;50.224;10.126;2023-07-13T12:05:16;23.60;86.00
5164;DHT22;2601;50.224;10.126;2023-07-13T12:07:47;23.60;86.00
5164;DHT22;2601;50.224;10.126;2023-07-13T12:10:27;23.60;86.00
5164;DHT22;2601;50.224;10.126;2023-07-13T12:13:04;23.60;86.10
5164;DHT22;2601;50.224;10.126;2023-07-13T12:15:41;23.60;86.00
5164;DHT22;2601;50.224;10.126;2023-07-13T12:18:29;23.60;86.00
5164;DHT22;2601;50.224;10.126;2023-07-13T12:20:57;23.60;85.90
5164;DHT22;2601;50.224;10.126;2023-07-13T12:23:29;23.60;85.90
5164;DHT22;2601;50.224;10.126;2023-07-13T12:25:57;23.60;85.90
5164;DHT22;2601;50.224;10.126;2023-07-13T12:28:35;23.60;85.60
5164;DHT22;2601;50.224;10.126;2023-07-13T12:34:05;23.60;85.80
5164;DHT22;2601;50.224;10.126;2023-07-13T12:36:34;23.60;85.30
5164;DHT22;2601;50.224;10.126;2023-07-13T12:39:20;23.60;85.70
5164;DHT22;2601;50.224;10.126;2023-07-13T12:41:50;23.60;85.60
5164;DHT22;2601;50.224;10.126;2023-07-13T12:44:24;23.60;85.60
5164;DHT22;2601;50.224;10.126;2023-07-13T12:47:02;23.60;85.50
5164;DHT22;2601;50.224;10.126;2023-07-13T12:49:31;23.60;85.50
5164;DHT22;2601;50.224;10.126;2023-07-13T12:52:01;23.60;85.20
5164;DHT22;2601;50.224;10.126;2023-07-13T12:54:29;23.60;84.60
5164;DHT22;2601;50.224;10.126;2023-07-13T12:56:55;23.60;84.30
5164;DHT22;2601;50.224;10.126;2023-07-13T12:59:24;23.60;84.20
5164;DHT22;2601;50.224;10.126;2023-07-13T13:01:51;23.60;83.90
5164;DHT22;2601;50.224;10.126;2023-07-13T13:04:19;23.60;83.70
5164;DHT22;2601;50.224;10.126;2023-07-13T13:06:47;23.60;84.00
5164;DHT22;2601;50.224;10.126;2023-07-13T13:09:15;23.60;83.90
5164;DHT22;2601;50.224;10.126;2023-07-13T13:11:42;23.60;83.70
5164;DHT22;2601;50.224;10.126;2023-07-13T13:14:08;23.60;83.60
5164;DHT22;2601;50.224;10.126;2023-07-13T13:16:37;23.60;83.70
5164;DHT22;2601;50.224;10.126;2023-07-13T13:19:14;23.60;83.70
5164;DHT22;2601;50.224;10.126;2023-07-13T13:21:40;23.60;83.40
5164;DHT22;2601;50.224;10.126;2023-07-13T13:24:17;23.60;83.30
5164;DHT22;2601;50.224;10.126;2023-07-13T13:26:44;23.60;83.40
5164;DHT22;2601;50.224;10.126;2023-07-13T13:29:16;23.60;83.40
5164;DHT22;2601;50.224;10.126;2023-07-13T13:31:43;23.60;83.40
5164;DHT22;2601;50.224;10.126;2023-07-13T13:34:11;23.60;83.50
5164;DHT22;2601;50.224;10.126;2023-07-13T13:36:37;23.60;83.70
5164;DHT22;2601;50.224;10.126;2023-07-13T13:39:14;23.60;83.80
5164;DHT22;2601;50.224;10.126;2023-07-13T13:41:42;23.60;83.80
5164;DHT22;2601;50.224;10.126;2023-07-13T13:44:09;23.60;83.40
5164;DHT22;2601;50.224;10.126;2023-07-13T13:46:35;23.60;83.30
5164;DHT22;2601;50.224;10.126;2023-07-13T13:49:01;23.60;83.10
5164;DHT22;2601;50.224;10.126;2023-07-13T13:51:28;23.60;82.90
5164;DHT22;2601;50.224;10.126;2023-07-13T13:53:54;23.60;83.00
5164;DHT22;2601;50.224;10.126;2023-07-13T13:56:20;23.60;83.00
5164;DHT22;2601;50.224;10.126;2023-07-13T13:58:46;23.60;83.00
5164;DHT22;2601;50.224;10.126;2023-07-13T14:01:16;23.60;83.10
5164;DHT22;2601;50.224;10.126;2023-07-13T14:03:42;23.60;83.10
5164;DHT22;2601;50.224;10.126;2023-07-13T14:06:12;23.60;83.40
5164;DHT22;2601;50.224;10.126;2023-07-13T14:08:38;23.60;83.50
5164;DHT22;2601;50.224;10.126;2023-07-13T14:11:03;23.60;83.50
5164;DHT22;2601;50.224;10.126;2023-07-13T14:13:36;23.60;83.60
5164;DHT22;2601;50.224;10.126;2023-07-13T14:16:04;23.60;83.60
5164;DHT22;2601;50.224;10.126;2023-07-13T14:18:30;23.60;83.70
5164;DHT22;2601;50.224;10.126;2023-07-13T14:20:56;23.60;83.70
5164;DHT22;2601;50.224;10.126;2023-07-13T14:23:21;23.60;83.90
5164;DHT22;2601;50.224;10.126;2023-07-13T14:25:47;23.60;83.80
5164;DHT22;2601;50.224;10.126;2023-07-13T14:28:24;23.60;83.70
5164;DHT22;2601;50.224;10.126;2023-07-13T14:30:51;23.60;83.80
5164;DHT22;2601;50.224;10.126;2023-07-13T14:33:17;23.60;83.90
5164;DHT22;2601;50.224;10.126;2023-07-13T14:35:42;23.60;83.70
5164;DHT22;2601;50.224;10.126;2023-07-13T14:38:17;23.60;83.90
5164;DHT22;2601;50.224;10.126;2023-07-13T14:40:43;23.60;84.00
5164;DHT22;2601;50.224;10.126;2023-07-13T14:43:13;23.60;84.20
5164;DHT22;2601;50.224;10.126;2023-07-13T14:45:46;23.60;84.20
5164;DHT22;2601;50.224;10.126;2023-07-13T14:48:20;23.60;84.20
5164;DHT22;2601;50.224;10.126;2023-07-13T14:50:50;23.60;84.00
5164;DHT22;2601;50.224;10.126;2023-07-13T14:53:16;23.60;83.90
5164;DHT22;2601;50.224;10.126;2023-07-13T14:55:41;23.60;83.90
5164;DHT22;2601;50.224;10.126;2023-07-13T14:58:08;23.60;83.80
5164;DHT22;2601;50.224;10.126;2023-07-13T15:00:33;23.60;83.80
5164;DHT22;2601;50.224;10.126;2023-07-13T15:02:59;23.60;83.90
5164;DHT22;2601;50.224;10.126;2023-07-13T15:05:29;23.60;83.90
5164;DHT22;2601;50.224;10.126;2023-07-13T15:07:57;23.60;83.90
5164;DHT22;2601;50.224;10.126;2023-07-13T15:10:27;23.60;83.80
5164;DHT22;2601;50.224;10.126;2023-07-13T15:12:59;23.60;83.70
5164;DHT22;2601;50.224;10.126;2023-07-13T15:15:30;23.60;83.40
5164;DHT22;2601;50.224;10.126;2023-07-13T15:17:57;23.60;83.00
5164;DHT22;2601;50.224;10.126;2023-07-13T15:20:32;23.60;82.70
5164;DHT22;2601;50.224;10.126;2023-07-13T15:22:59;23.60;82.60
5164;DHT22;2601;50.224;10.126;2023-07-13T15:25:28;23.60;82.40
5164;DHT22;2601;50.224;10.126;2023-07-13T15:27:55;23.60;82.30
5164;DHT22;2601;50.224;10.126;2023-07-13T15:30:22;23.60;82.20
5164;DHT22;2601;50.224;10.126;2023-07-13T15:32:49;23.60;82.30
5164;DHT22;2601;50.224;10.126;2023-07-13T15:35:19;23.60;82.30
5164;DHT22;2601;50.224;10.126;2023-07-13T15:37:45;23.60;82.30
5164;DHT22;2601;50.224;10.126;2023-07-13T15:40:12;23.60;82.20
5164;DHT22;2601;50.224;10.126;2023-07-13T15:42:40;23.60;82.60
5164;DHT22;2601;50.224;10.126;2023-07-13T15:45:23;23.60;82.40
5164;DHT22;2601;50.224;10.126;2023-07-13T15:47:50;23.60;82.20
5164;DHT22;2601;50.224;10.126;2023-07-13T15:50:22;23.60;82.00
5164;DHT22;2601;50.224;10.126;2023-07-13T15:52:51;23.60;81.80
5164;DHT22;2601;50.224;10.126;2023-07-13T15:55:18;23.60;81.70
5164;DHT22;2601;50.224;10.126;2023-07-13T15:57:50;23.60;81.90
5164;DHT22;2601;50.224;10.126;2023-07-13T16:00:22;23.60;82.00
5164;DHT22;2601;50.224;10.126;2023-07-13T16:02:49;23.60;82.30
5164;DHT22;2601;50.224;10.126;2023-07-13T16:05:15;23.60;82.40
5164;DHT22;2601;50.224;10.126;2023-07-13T16:07:46;23.60;82.50
5164;DHT22;2601;50.224;10.126;2023-07-13T16:10:21;23.60;82.60
5164;DHT22;2601;50.224;10.126;2023-07-13T16:12:47;23.60;82.40
5164;DHT22;2601;50.224;10.126;2023-07-13T16:15:15;23.60;82.90
5164;DHT22;2601;50.224;10.126;2023-07-13T16:17:42;23.60;82.70
5164;DHT22;2601;50.224;10.126;2023-07-13T16:20:08;23.60;82.70
5164;DHT22;2601;50.224;10.126;2023-07-13T16:22:47;23.60;82.60
5164;DHT22;2601;50.224;10.126;2023-07-13T16:25:19;23.60;82.60
5164;DHT22;2601;50.224;10.126;2023-07-13T16:27:46;23.60;82.60
5164;DHT22;2601;50.224;10.126;2023-07-13T16:30:18;23.60;82.70
5164;DHT22;2601;50.224;10.126;2023-07-13T16:32:44;23.60;82.70
5164;DHT22;2601;50.224;10.126;2023-07-13T16:35:10;23.60;82.90
5164;DHT22;2601;50.224;10.126;2023-07-13T16:37:37;23.60;82.90
5164;DHT22;2601;50.224;10.126;2023-07-13T16:40:19;23.60;83.00